Time;durP1;ratioP1;P1;durP2;ratioP2;P2;SDS_P1;SDS_P2;PMS_P1;PMS_P2;Temp;Humidity;BMP_temperature;BMP_pressure;BME280_temperature;BME280_humidity;BME280_pressure;Samples;Min_cycle;Max_cycle;Signal;HPM_P1;HPM_P2
2022/12/18 00:02:43;;;;;;;33.65;22.88;;;;;;;7.33;100.00;98462.63;10273298;28;20153;-54
2022/12/18 00:07:42;;;;;;;19.13;14.13;;;;;;;6.98;100.00;98478.19;10275583;28;20129;-54
2022/12/18 00:12:41;;;;;;;18.80;12.60;;;;;;;6.77;100.00;98478.50;10266630;28;20046;-54
2022/12/18 00:17:39;;;;;;;22.23;13.48;;;;;;;6.55;100.00;98479.63;10279670;28;20042;-54
2022/12/18 00:22:38;;;;;;;17.98;12.27;;;;;;;6.27;100.00;98488.34;10281867;28;20487;-54
2022/12/18 00:27:37;;;;;;;21.67;13.85;;;;;;;6.10;100.00;98497.31;10286910;28;20022;-54
2022/12/18 00:32:37;;;;;;;18.50;12.32;;;;;;;6.05;100.00;98501.47;10284380;28;20038;-54
2022/12/18 00:37:36;;;;;;;20.70;15.35;;;;;;;6.03;100.00;98501.41;10284318;28;20156;-54
2022/12/18 00:47:53;;;;;;;18.20;12.40;;;;;;;5.93;100.00;98509.66;10286188;28;20633;-54
2022/12/18 00:52:52;;;;;;;19.20;12.90;;;;;;;5.83;100.00;98521.41;10287079;28;20138;-54
2022/12/18 00:57:52;;;;;;;22.20;14.13;;;;;;;5.74;100.00;98521.13;10284293;28;20116;-54
2022/12/18 01:02:51;;;;;;;17.15;11.35;;;;;;;5.69;100.00;98539.00;10284394;28;20133;-54
2022/12/18 01:07:50;;;;;;;19.52;12.85;;;;;;;5.74;100.00;98532.31;10282436;28;20111;-54
2022/12/18 01:12:49;;;;;;;17.13;11.05;;;;;;;5.67;100.00;98532.97;10283459;28;20501;-54
2022/12/18 01:17:48;;;;;;;18.42;11.85;;;;;;;5.65;100.00;98541.44;10263041;28;20138;-54
2022/12/18 01:22:47;;;;;;;29.33;15.63;;;;;;;5.78;100.00;98543.59;10266849;28;20045;-54
2022/12/18 01:27:46;;;;;;;25.27;13.73;;;;;;;5.84;100.00;98541.22;10264991;28;20030;-54
2022/12/18 01:32:45;;;;;;;23.67;13.95;;;;;;;5.58;100.00;98539.50;10267671;28;20117;-54
2022/12/18 01:37:44;;;;;;;30.05;18.65;;;;;;;5.69;100.00;98557.03;10270776;28;20490;-55
2022/12/18 01:42:43;;;;;;;38.40;21.50;;;;;;;5.79;100.00;98559.91;10270149;28;20010;-54
2022/12/18 01:47:46;;;;;;;20.75;12.68;;;;;;;5.64;100.00;98560.31;10269530;28;20044;-54
2022/12/18 01:53:16;;;;;;;29.40;16.65;;;;;;;5.76;100.00;98561.56;10269385;28;20467;-54
2022/12/18 01:58:16;;;;;;;30.73;15.63;;;;;;;5.86;100.00;98570.47;10271448;28;20058;-54
2022/12/18 02:03:15;;;;;;;64.35;26.00;;;;;;;5.93;100.00;98563.75;10269121;28;20095;-54
2022/12/18 02:08:23;;;;;;;128.05;46.25;;;;;;;6.09;100.00;98571.13;10283726;28;20077;-54
2022/12/18 02:13:40;;;;;;;114.65;41.60;;;;;;;6.27;100.00;98575.97;10288673;28;20066;-54
2022/12/18 02:18:45;;;;;;;41.78;20.15;;;;;;;6.37;100.00;98569.38;10289054;28;20069;-55
2022/12/18 02:23:50;;;;;;;25.55;15.98;;;;;;;6.42;100.00;98575.53;10266906;28;20081;-54
2022/12/18 02:28:55;;;;;;;31.83;16.58;;;;;;;6.45;100.00;98578.22;10288724;28;20069;-54
2022/12/18 02:33:58;;;;;;;30.63;16.85;;;;;;;6.52;100.00;98584.41;10288879;28;20077;-54
2022/12/18 02:38:59;;;;;;;122.93;53.53;;;;;;;6.64;100.00;98596.78;10274470;28;20069;-55
2022/12/18 02:44:01;;;;;;;39.25;26.65;;;;;;;6.65;100.00;98596.81;10267510;28;20058;-55
2022/12/18 02:49:29;;;;;;;29.02;18.75;;;;;;;6.61;100.00;98601.03;10288121;28;20769;-54
2022/12/18 02:54:56;;;;;;;36.65;21.92;;;;;;;6.68;100.00;98608.91;10288223;28;20057;-54
2022/12/18 03:00:00;;;;;;;30.02;20.25;;;;;;;6.69;100.00;98608.97;10286755;28;20061;-54
2022/12/18 03:05:13;;;;;;;22.73;12.88;;;;;;;6.64;100.00;98612.25;10270613;28;20060;-54
2022/12/18 03:10:16;;;;;;;31.17;17.75;;;;;;;6.69;100.00;98615.84;10277620;28;20081;-54
2022/12/18 03:15:24;;;;;;;20.88;12.02;;;;;;;6.67;100.00;98613.19;10288472;28;20073;-54
2022/12/18 03:20:26;;;;;;;22.17;11.98;;;;;;;6.76;100.00;98621.19;10287309;28;20490;-54
2022/12/18 03:25:27;;;;;;;16.77;10.35;;;;;;;6.56;100.00;98591.38;10288124;28;20064;-54
2022/12/18 03:30:29;;;;;;;13.95;8.43;;;;;;;6.67;100.00;98639.00;10292746;28;20087;-55
2022/12/18 03:35:38;;;;;;;17.08;11.85;;;;;;;6.60;100.00;98648.25;10294280;28;20358;-54
2022/12/18 03:41:23;;;;;;;19.35;10.65;;;;;;;6.45;100.00;98652.09;10293616;28;20088;-54
2022/12/18 03:46:36;;;;;;;17.27;10.90;;;;;;;6.41;100.00;98664.03;10277268;28;20072;-55
2022/12/18 03:51:47;;;;;;;16.02;9.80;;;;;;;6.22;100.00;98675.47;10293931;28;20061;-54
2022/12/18 03:56:56;;;;;;;21.15;13.20;;;;;;;6.03;100.00;98686.03;10294772;28;20070;-54
2022/12/18 04:01:58;;;;;;;19.50;11.30;;;;;;;5.99;100.00;98692.78;10292845;28;20078;-54
2022/12/18 04:06:58;;;;;;;18.90;11.25;;;;;;;5.74;100.00;98681.69;10294021;28;20057;-54
2022/12/18 04:11:57;;;;;;;21.38;11.23;;;;;;;5.85;100.00;98696.63;10292948;28;20084;-55
2022/12/18 04:16:56;;;;;;;24.23;14.23;;;;;;;5.68;100.00;98696.06;10293902;28;20036;-54
2022/12/18 04:21:55;;;;;;;28.98;16.13;;;;;;;5.54;100.00;98708.47;10292742;28;20038;-54
2022/12/18 04:26:54;;;;;;;31.80;17.73;;;;;;;5.45;100.00;98705.56;10293591;28;20117;-54
2022/12/18 04:31:54;;;;;;;30.38;17.55;;;;;;;5.37;100.00;98712.13;10291324;28;20484;-55
2022/12/18 04:36:53;;;;;;;31.48;17.15;;;;;;;5.25;100.00;98726.34;10290755;28;20069;-54
2022/12/18 04:41:51;;;;;;;27.88;15.75;;;;;;;5.06;100.00;98729.97;10291180;28;20108;-54
2022/12/18 04:46:50;;;;;;;26.63;17.20;;;;;;;4.95;100.00;98738.97;10291715;28;20029;-54
2022/12/18 04:51:49;;;;;;;26.15;15.40;;;;;;;5.08;100.00;98745.44;10292086;28;20044;-54
2022/12/18 04:56:48;;;;;;;30.08;18.10;;;;;;;5.19;100.00;98754.44;10291201;28;20096;-54
2022/12/18 05:01:47;;;;;;;25.33;15.07;;;;;;;5.34;100.00;98761.81;10291779;28;20080;-55
2022/12/18 05:06:46;;;;;;;29.75;18.00;;;;;;;5.52;100.00;98767.63;10287515;28;20034;-54
2022/12/18 05:11:46;;;;;;;25.25;14.13;;;;;;;5.72;100.00;98776.06;10291060;28;20053;-54
2022/12/18 05:16:45;;;;;;;28.45;15.90;;;;;;;5.88;100.00;98787.75;10290450;28;20062;-55
2022/12/18 05:21:44;;;;;;;30.38;18.55;;;;;;;6.03;100.00;98789.97;10291446;28;20120;-55
2022/12/18 05:26:43;;;;;;;35.83;22.40;;;;;;;6.07;100.00;98793.50;10284931;28;20121;-55
2022/12/18 05:31:42;;;;;;;33.65;16.73;;;;;;;5.92;100.00;98799.03;10259929;28;20085;-55
2022/12/18 05:36:41;;;;;;;29.10;17.13;;;;;;;5.43;100.00;98813.63;10288269;28;20065;-54
2022/12/18 05:41:40;;;;;;;28.90;15.73;;;;;;;5.41;100.00;98825.56;10288502;28;20036;-55
2022/12/18 05:46:42;;;;;;;20.65;12.93;;;;;;;5.22;100.00;98836.88;10282354;28;20116;-55
2022/12/18 05:51:41;;;;;;;24.85;14.70;;;;;;;5.29;100.00;98835.41;10277632;28;20106;-54
2022/12/18 05:56:40;;;;;;;37.70;23.27;;;;;;;5.40;100.00;98831.53;10287629;28;20105;-54
2022/12/18 06:01:39;;;;;;;35.90;21.38;;;;;;;5.47;100.00;98841.25;10287475;28;20096;-54
2022/12/18 06:06:38;;;;;;;40.58;21.92;;;;;;;5.41;100.00;98860.72;10284762;28;20706;-55
2022/12/18 06:11:37;;;;;;;35.55;19.20;;;;;;;5.31;100.00;98846.66;10286027;28;20060;-55
2022/12/18 06:16:37;;;;;;;29.77;18.27;;;;;;;5.44;100.00;98856.59;10288720;28;20137;-54
2022/12/18 06:21:36;;;;;;;32.17;18.40;;;;;;;5.58;100.00;98863.91;10286585;28;20038;-54
2022/12/18 06:26:38;;;;;;;33.03;17.55;;;;;;;5.60;100.00;98877.72;10283618;28;20113;-54
2022/12/18 06:31:37;;;;;;;30.33;15.68;;;;;;;5.52;100.00;98891.19;10284706;28;20080;-58
2022/12/18 06:36:36;;;;;;;35.45;22.40;;;;;;;5.55;100.00;98891.34;10284308;28;20113;-54
2022/12/18 06:41:35;;;;;;;21.73;12.43;;;;;;;5.63;100.00;98904.47;10286705;28;20042;-54
2022/12/18 06:46:34;;;;;;;64.93;41.33;;;;;;;5.60;100.00;98909.50;10286232;28;20018;-54
2022/12/18 06:51:33;;;;;;;35.60;24.08;;;;;;;5.60;100.00;98926.66;10286954;28;20523;-54
2022/12/18 06:56:32;;;;;;;31.05;19.15;;;;;;;5.50;100.00;98921.16;10285789;28;20034;-54
2022/12/18 07:01:31;;;;;;;31.75;20.05;;;;;;;5.54;100.00;98923.03;10287721;28;20044;-54
2022/12/18 07:06:30;;;;;;;29.45;18.77;;;;;;;5.58;100.00;98933.44;10276625;28;20042;-55
2022/12/18 07:11:29;;;;;;;33.80;23.65;;;;;;;5.25;100.00;98900.44;10285105;28;20139;-54
2022/12/18 07:16:28;;;;;;;31.85;21.00;;;;;;;5.60;100.00;98945.53;10293538;28;20038;-54
2022/12/18 07:21:27;;;;;;;27.98;18.38;;;;;;;5.73;100.00;98942.63;10292749;28;20104;-55
2022/12/18 07:26:26;;;;;;;26.52;16.00;;;;;;;5.71;100.00;98951.13;10292396;28;20044;-54
2022/12/18 07:31:26;;;;;;;29.52;18.35;;;;;;;5.84;100.00;98945.59;10290613;28;20026;-55
2022/12/18 07:36:25;;;;;;;101.60;61.05;;;;;;;5.89;100.00;98961.22;10292152;28;20068;-55
2022/12/18 07:41:24;;;;;;;34.38;20.48;;;;;;;5.89;100.00;98962.09;10293099;28;20120;-54
2022/12/18 07:46:23;;;;;;;39.38;23.80;;;;;;;6.10;100.00;98953.41;10291781;28;20029;-54
2022/12/18 07:51:22;;;;;;;31.48;20.40;;;;;;;6.18;100.00;98954.53;10287412;28;20068;-55
2022/12/18 07:56:21;;;;;;;33.83;21.35;;;;;;;6.27;100.00;98957.44;10288554;28;20034;-55
2022/12/18 08:01:20;;;;;;;142.15;89.38;;;;;;;6.37;100.00;98968.97;10275616;28;20078;-54
2022/12/18 08:06:19;;;;;;;77.18;54.25;;;;;;;6.54;100.00;98967.84;10271216;28;20029;-55
2022/12/18 08:11:18;;;;;;;50.65;28.85;;;;;;;6.72;100.00;98970.16;10292924;28;20060;-54
2022/12/18 08:16:18;;;;;;;212.20;102.78;;;;;;;6.79;100.00;98968.69;10291777;28;20054;-54
2022/12/18 08:21:20;;;;;;;113.72;43.83;;;;;;;6.91;100.00;98973.38;10284331;28;20073;-55
2022/12/18 08:26:20;;;;;;;156.00;61.92;;;;;;;7.04;100.00;98988.44;10279510;28;20066;-55
2022/12/18 08:31:20;;;;;;;137.80;72.90;;;;;;;7.14;100.00;98992.19;10287863;28;20061;-55
2022/12/18 08:36:20;;;;;;;211.07;104.93;;;;;;;7.00;100.00;98990.03;10290168;28;20076;-55
2022/12/18 08:41:20;;;;;;;60.72;37.20;;;;;;;7.16;100.00;99001.72;10292547;28;20057;-55
2022/12/18 08:46:20;;;;;;;62.75;43.13;;;;;;;7.27;100.00;99006.38;10286249;28;20823;-55
2022/12/18 08:51:20;;;;;;;21.08;15.63;;;;;;;7.28;100.00;98990.06;10292164;28;20081;-55
2022/12/18 08:56:19;;;;;;;22.88;13.60;;;;;;;7.01;100.00;98998.66;10291932;28;20062;-54
2022/12/18 09:01:17;;;;;;;27.42;18.67;;;;;;;6.96;100.00;99014.00;10283707;28;20044;-55
2022/12/18 09:06:18;;;;;;;40.15;25.30;;;;;;;6.99;100.00;99013.22;10281126;28;20024;-55
2022/12/18 09:11:24;;;;;;;48.88;32.15;;;;;;;6.96;100.00;99013.09;10277999;28;20084;-55
2022/12/18 09:16:25;;;;;;;110.03;73.22;;;;;;;6.92;100.00;99009.56;10288603;28;20084;-54
2022/12/18 09:21:26;;;;;;;36.50;26.13;;;;;;;6.91;99.52;99022.41;10288357;28;20185;-55
2022/12/18 09:26:26;;;;;;;29.30;21.40;;;;;;;6.86;98.38;99026.53;10287391;28;20072;-55
2022/12/18 09:31:25;;;;;;;29.45;22.25;;;;;;;6.75;97.81;99031.31;10287883;28;20494;-55
2022/12/18 09:36:24;;;;;;;38.58;24.23;;;;;;;6.65;98.16;99027.53;10288762;28;20040;-54
2022/12/18 09:41:57;;;;;;;25.10;16.52;;;;;;;6.77;95.44;99030.56;10289013;28;20540;-55
2022/12/18 09:47:05;;;;;;;18.30;11.85;;;;;;;6.62;84.29;99032.59;10285733;28;20937;-55
2022/12/18 09:52:39;;;;;;;14.23;9.18;;;;;;;6.21;78.14;99028.53;10287052;28;20495;-55
2022/12/18 09:57:47;;;;;;;19.20;11.85;;;;;;;5.95;74.57;99031.91;10260596;28;20069;-54
2022/12/18 10:02:47;;;;;;;21.10;11.48;;;;;;;6.04;73.54;99045.94;10288047;28;20065;-54
2022/12/18 10:08:04;;;;;;;20.58;13.20;;;;;;;6.28;77.08;99040.81;10288971;28;20138;-54
2022/12/18 10:13:25;;;;;;;21.38;13.55;;;;;;;6.25;74.12;99051.00;10277115;28;20107;-54
2022/12/18 10:18:36;;;;;;;11.18;7.28;;;;;;;6.22;70.34;99038.91;10283786;28;20101;-55
2022/12/18 10:23:57;;;;;;;20.90;13.50;;;;;;;6.24;69.71;99038.97;10269223;28;20134;-54
2022/12/18 10:28:58;;;;;;;29.52;20.38;;;;;;;6.48;73.59;99041.53;10276549;28;20083;-55
2022/12/18 10:33:57;;;;;;;38.70;28.20;;;;;;;6.67;73.98;99030.19;10286039;28;20065;-54
2022/12/18 10:39:15;;;;;;;36.67;23.60;;;;;;;6.78;73.42;99031.44;10288300;28;20157;-55
2022/12/18 10:44:22;;;;;;;22.92;16.00;;;;;;;6.94;71.86;99045.75;10284379;28;20135;-57
2022/12/18 10:49:26;;;;;;;27.88;20.05;;;;;;;6.72;67.32;99038.94;10292998;28;20121;-57
2022/12/18 10:54:27;;;;;;;14.35;10.02;;;;;;;6.73;66.33;99054.50;10294793;28;20061;-56
2022/12/18 10:59:26;;;;;;;14.57;11.75;;;;;;;6.68;63.73;99048.31;10293111;28;20482;-56
2022/12/18 11:04:28;;;;;;;22.05;15.68;;;;;;;6.51;63.33;99045.09;10286649;28;20041;-57
2022/12/18 11:09:32;;;;;;;21.63;14.35;;;;;;;6.54;63.97;99037.50;10290232;28;20141;-57
2022/12/18 11:14:56;;;;;;;22.45;16.20;;;;;;;6.64;63.92;99046.44;10290872;28;20505;-57
2022/12/18 11:20:00;;;;;;;18.98;14.50;;;;;;;6.68;64.15;99053.47;10292946;28;20077;-56
2022/12/18 11:25:00;;;;;;;16.40;10.50;;;;;;;6.74;63.10;99065.69;10294298;28;20073;-57
2022/12/18 11:30:21;;;;;;;21.48;14.23;;;;;;;6.85;61.57;99056.63;10292564;28;20078;-56
2022/12/18 11:35:52;;;;;;;21.42;14.85;;;;;;;6.98;62.60;99060.47;10294449;28;20514;-57
2022/12/18 11:41:03;;;;;;;25.00;18.50;;;;;;;7.02;59.41;99046.88;10259396;28;20057;-57
2022/12/18 11:46:16;;;;;;;15.25;9.15;;;;;;;7.07;60.32;99062.50;10294230;28;20488;-57
2022/12/18 11:51:28;;;;;;;17.92;12.48;;;;;;;7.25;60.28;99057.97;10293185;28;20057;-57
2022/12/18 11:56:34;;;;;;;23.73;16.50;;;;;;;7.03;58.35;99030.56;10292304;28;20073;-57
2022/12/18 12:01:45;;;;;;;15.23;10.48;;;;;;;7.01;56.36;99034.81;10293200;28;20502;-58
2022/12/18 12:07:09;;;;;;;14.18;9.88;;;;;;;6.87;56.10;99044.66;10270845;28;20463;-57
2022/12/18 12:12:20;;;;;;;18.48;13.45;;;;;;;6.80;55.55;99051.31;10275513;28;20085;-57
2022/12/18 12:17:31;;;;;;;17.50;10.27;;;;;;;6.75;54.17;99036.47;10290710;28;20057;-57
2022/12/18 12:22:42;;;;;;;14.48;9.40;;;;;;;6.83;54.24;99038.50;10274327;28;20057;-55
2022/12/18 12:28:10;;;;;;;21.45;14.35;;;;;;;6.85;52.81;99054.03;10289655;28;20069;-55
2022/12/18 12:33:15;;;;;;;13.27;8.43;;;;;;;6.89;54.29;99052.41;10287022;28;20447;-55
2022/12/18 12:38:26;;;;;;;19.83;12.60;;;;;;;6.86;53.37;99057.50;10286833;28;20060;-58
2022/12/18 12:43:46;;;;;;;16.40;11.15;;;;;;;6.82;51.48;99062.56;10271699;28;20534;-57
2022/12/18 12:48:58;;;;;;;18.52;11.88;;;;;;;6.90;51.42;99070.56;10289086;28;20081;-58
2022/12/18 12:54:00;;;;;;;21.15;12.57;;;;;;;6.91;49.08;99072.28;10290041;28;20065;-58
2022/12/18 12:59:22;;;;;;;27.83;17.33;;;;;;;6.90;48.16;99046.47;10283504;28;20514;-58
2022/12/18 13:04:32;;;;;;;21.65;13.32;;;;;;;6.88;47.65;99059.28;10276174;28;20453;-58
2022/12/18 13:09:33;;;;;;;18.40;13.82;;;;;;;6.82;46.98;99056.53;10287979;28;20074;-59
2022/12/18 13:14:37;;;;;;;18.23;12.25;;;;;;;7.03;48.45;99074.44;10287438;28;20494;-58
2022/12/18 13:19:36;;;;;;;25.48;12.10;;;;;;;7.11;50.05;99073.00;10288574;28;20061;-58
2022/12/18 13:24:35;;;;;;;31.67;19.20;;;;;;;6.99;49.10;99082.91;10286195;28;20053;-58
2022/12/18 13:29:46;;;;;;;24.38;15.50;;;;;;;6.99;49.43;99091.53;10279389;28;20064;-58
2022/12/18 13:34:45;;;;;;;31.67;20.20;;;;;;;7.04;50.51;99089.97;10276949;28;20823;-58
2022/12/18 13:39:44;;;;;;;36.67;23.33;;;;;;;7.10;51.28;99094.47;10257000;28;20458;-58
2022/12/18 13:44:43;;;;;;;23.60;16.42;;;;;;;7.21;51.33;99098.28;10275044;28;20036;-58
2022/12/18 13:49:43;;;;;;;20.40;14.23;;;;;;;7.15;51.32;99098.09;10289310;28;20080;-57
2022/12/18 13:54:47;;;;;;;11.68;7.55;;;;;;;6.83;51.30;99105.56;10286454;28;20057;-58
2022/12/18 13:59:46;;;;;;;37.45;25.05;;;;;;;6.70;51.87;99105.09;10284923;28;20061;-58
2022/12/18 14:04:46;;;;;;;23.63;16.25;;;;;;;6.57;50.61;99116.66;10283788;28;20033;-58
2022/12/18 14:09:49;;;;;;;27.15;20.73;;;;;;;6.44;50.79;99124.75;10284478;28;20077;-58
2022/12/18 14:14:51;;;;;;;26.35;16.73;;;;;;;6.29;50.22;99120.78;10282534;28;20475;-58
2022/12/18 14:19:51;;;;;;;23.27;13.65;;;;;;;6.22;50.68;99126.53;10286757;28;20064;-58
2022/12/18 14:25:15;;;;;;;30.58;15.50;;;;;;;6.16;50.82;99139.19;10289122;28;20510;-58
2022/12/18 14:30:24;;;;;;;41.92;23.98;;;;;;;6.16;51.58;99144.31;10281429;28;20068;-58
2022/12/18 14:35:23;;;;;;;33.25;21.98;;;;;;;6.13;51.43;99134.78;10284938;28;20061;-55
2022/12/18 14:40:22;;;;;;;28.48;19.08;;;;;;;6.04;51.89;99138.69;10258407;28;20042;-55
2022/12/18 14:45:34;;;;;;;35.03;23.52;;;;;;;5.91;50.77;99142.50;10285851;28;20053;-55
2022/12/18 14:50:33;;;;;;;37.35;23.35;;;;;;;5.88;52.14;99148.41;10286565;28;20072;-55
2022/12/18 14:55:32;;;;;;;36.30;21.60;;;;;;;5.75;51.99;99144.47;10271121;28;20068;-55
2022/12/18 15:00:31;;;;;;;29.75;20.45;;;;;;;5.55;52.06;99150.47;10240638;28;20120;-53
2022/12/18 15:05:33;;;;;;;31.75;21.38;;;;;;;5.38;52.68;99149.78;10273468;28;20041;-53
2022/12/18 15:10:32;;;;;;;32.60;20.38;;;;;;;5.30;53.50;99158.91;10264375;28;20144;-53
2022/12/18 15:15:37;;;;;;;28.40;17.50;;;;;;;5.30;53.78;99161.47;10274372;28;20478;-53
2022/12/18 15:20:48;;;;;;;41.10;25.13;;;;;;;5.33;54.39;99171.88;10280741;28;20116;-56
2022/12/18 15:26:08;;;;;;;28.88;16.27;;;;;;;5.24;52.67;99167.22;10287698;28;20121;-56
2022/12/18 15:31:13;;;;;;;27.52;18.02;;;;;;;5.32;52.75;99181.31;10284268;28;20132;-56
2022/12/18 15:36:14;;;;;;;29.20;17.05;;;;;;;5.38;53.09;99190.97;10272944;28;20109;-56
2022/12/18 15:41:15;;;;;;;50.00;29.20;;;;;;;5.37;52.47;99190.91;10268716;28;20129;-56
2022/12/18 15:46:16;;;;;;;31.05;18.88;;;;;;;5.18;50.26;99202.09;10285617;28;20116;-56
2022/12/18 15:51:25;;;;;;;33.17;20.60;;;;;;;5.11;50.63;99207.00;10286567;28;20117;-56
2022/12/18 16:01:52;;;;;;;25.17;14.18;;;;;;;4.96;50.83;99226.88;10247318;28;20564;-56
2022/12/18 16:06:51;;;;;;;27.70;18.73;;;;;;;5.00;51.86;99233.94;10282246;28;20125;-56
2022/12/18 16:11:50;;;;;;;31.67;18.15;;;;;;;5.11;51.79;99237.88;10270703;28;20046;-56
2022/12/18 16:16:52;;;;;;;20.15;13.60;;;;;;;4.93;50.55;99247.31;10269483;28;20108;-56
2022/12/18 16:21:54;;;;;;;11.00;6.25;;;;;;;4.83;50.05;99261.44;10271831;28;20128;-56
2022/12/18 16:26:55;;;;;;;13.27;6.78;;;;;;;4.66;50.19;99242.63;10270552;28;20141;-56
2022/12/18 16:31:59;;;;;;;21.98;12.95;;;;;;;4.96;51.28;99260.31;10279039;28;20112;-56
2022/12/18 16:37:01;;;;;;;40.00;27.02;;;;;;;5.12;53.15;99270.50;10270184;28;20113;-59
2022/12/18 16:42:01;;;;;;;28.73;16.63;;;;;;;5.24;55.31;99279.59;10282408;28;20550;-56
2022/12/18 16:47:01;;;;;;;20.80;13.27;;;;;;;5.11;55.29;99293.56;10285696;28;20113;-56
2022/12/18 16:52:00;;;;;;;22.23;14.77;;;;;;;5.03;54.19;99285.53;10282058;28;20133;-53
2022/12/18 16:57:00;;;;;;;27.88;18.38;;;;;;;4.86;51.88;99299.28;10278029;28;20116;-53
2022/12/18 17:01:58;;;;;;;;;;;;;;;4.59;52.47;99322.88;10283779;28;20117;-54
2022/12/18 17:06:57;;;;;;;19.50;11.93;;;;;;;4.33;53.20;99334.47;10278112;28;20067;-53
2022/12/18 17:11:56;;;;;;;21.08;12.88;;;;;;;4.17;53.79;99353.38;10270428;28;20611;-56
2022/12/18 17:17:01;;;;;;;21.85;13.23;;;;;;;3.90;55.48;99364.84;10284439;28;20892;-56
2022/12/18 17:22:00;;;;;;;24.65;14.02;;;;;;;3.67;56.57;99387.63;10284067;28;20109;-55
2022/12/18 17:26:59;;;;;;;46.90;24.02;;;;;;;3.67;56.55;99390.19;10268154;28;20128;-56
2022/12/18 17:31:58;;;;;;;43.42;24.90;;;;;;;3.58;57.11;99394.84;10283621;28;20026;-56
2022/12/18 17:36:57;;;;;;;40.75;23.10;;;;;;;3.45;58.05;99403.59;10281599;28;20041;-56
2022/12/18 17:41:56;;;;;;;30.27;15.93;;;;;;;3.47;57.47;99401.09;10279113;28;20402;-56
2022/12/18 17:46:55;;;;;;;28.55;16.27;;;;;;;3.43;57.67;99394.94;10280145;28;20029;-56
2022/12/18 17:51:54;;;;;;;30.15;17.88;;;;;;;3.33;57.88;99391.00;10277339;28;20809;-56
2022/12/18 17:56:53;;;;;;;37.92;22.33;;;;;;;3.30;57.78;99403.63;10275754;28;20136;-56
2022/12/18 18:01:52;;;;;;;40.55;25.90;;;;;;;3.18;58.28;99398.72;10271707;28;20042;-55
2022/12/18 18:06:50;;;;;;;167.13;93.30;;;;;;;3.04;59.33;99404.78;10260510;28;20112;-55
2022/12/18 18:17:07;;;;;;;66.18;37.05;;;;;;;2.77;61.71;99404.13;10280477;28;20128;-56
2022/12/18 18:22:06;;;;;;;51.42;29.38;;;;;;;2.62;61.99;99408.38;10276649;28;20038;-55
2022/12/18 18:27:05;;;;;;;72.53;40.83;;;;;;;2.50;63.26;99416.25;10279427;28;20037;-55
2022/12/18 18:32:03;;;;;;;167.48;75.35;;;;;;;2.44;64.68;99421.00;10271544;28;20033;-56
2022/12/18 18:37:02;;;;;;;194.00;87.43;;;;;;;2.20;66.62;99415.34;10278034;28;20077;-56
2022/12/18 18:42:02;;;;;;;42.58;22.75;;;;;;;2.00;67.23;99419.28;10276822;28;20033;-55
2022/12/18 18:47:01;;;;;;;191.20;81.57;;;;;;;1.87;67.95;99446.72;10278634;28;20124;-55
2022/12/18 18:52:01;;;;;;;27.55;16.20;;;;;;;1.69;69.30;99456.75;10272520;28;20077;-55
2022/12/18 18:57:00;;;;;;;34.38;17.08;;;;;;;1.36;70.74;99472.53;10271277;28;20133;-55
2022/12/18 19:01:59;;;;;;;31.15;16.13;;;;;;;1.20;71.18;99486.94;10289602;28;20072;-55
2022/12/18 19:06:58;;;;;;;41.33;21.42;;;;;;;1.07;72.14;99481.81;10285295;28;20145;-56
2022/12/18 19:17:15;;;;;;;84.82;45.53;;;;;;;0.94;73.25;99507.34;10276655;28;20121;-55
2022/12/18 19:22:14;;;;;;;123.53;59.42;;;;;;;1.01;73.30;99510.41;10280302;28;20034;-55
2022/12/18 19:27:13;;;;;;;65.88;32.90;;;;;;;0.96;74.44;99522.00;10271634;28;20030;-55
2022/12/18 19:32:12;;;;;;;84.28;41.47;;;;;;;0.79;75.41;99530.25;10281381;28;20628;-55
2022/12/18 19:37:11;;;;;;;56.53;28.88;;;;;;;0.78;75.51;99520.78;10266939;28;20506;-55
2022/12/18 19:42:10;;;;;;;66.65;36.88;;;;;;;0.68;76.20;99539.75;10283359;28;20412;-55
2022/12/18 19:47:09;;;;;;;130.00;70.85;;;;;;;0.56;76.79;99536.38;10288028;28;20030;-56
2022/12/18 19:52:08;;;;;;;78.70;45.38;;;;;;;0.46;77.31;99545.97;10287351;28;20044;-56
2022/12/18 19:57:10;;;;;;;35.45;17.40;;;;;;;0.29;79.01;99556.72;10288645;28;20042;-55
2022/12/18 20:02:12;;;;;;;49.42;24.90;;;;;;;0.17;79.58;99566.06;10283905;28;20136;-55
2022/12/18 20:07:11;;;;;;;42.65;23.38;;;;;;;0.09;78.96;99565.56;10285139;28;20132;-55
2022/12/18 20:12:10;;;;;;;52.97;29.13;;;;;;;0.04;79.01;99562.69;10285792;28;20077;-56
2022/12/18 20:17:09;;;;;;;50.47;24.10;;;;;;;0.07;79.06;99563.69;10287039;28;20423;-55
2022/12/18 20:22:08;;;;;;;48.50;25.25;;;;;;;-0.05;79.19;99576.47;10278696;28;20034;-56
2022/12/18 20:27:07;;;;;;;52.00;26.58;;;;;;;0.02;78.15;99584.66;10285462;28;20108;-55
2022/12/18 20:32:06;;;;;;;;;;;;;;;-0.04;77.13;99589.34;10265696;28;20195;-55
2022/12/18 20:37:05;;;;;;;40.97;20.88;;;;;;;-0.04;76.45;99599.56;10283690;28;19925;-55
2022/12/18 20:42:04;;;;;;;37.17;20.52;;;;;;;-0.00;73.04;99608.28;10284526;28;20112;-55
2022/12/18 20:47:03;;;;;;;40.17;19.92;;;;;;;0.07;73.19;99607.94;10278825;28;20131;-55
2022/12/18 20:52:03;;;;;;;29.55;16.42;;;;;;;0.04;72.03;99600.97;10282340;28;20614;-55
2022/12/18 20:57:02;;;;;;;;;;;;;;;0.05;71.28;99612.97;10285353;28;20150;-56
2022/12/18 21:02:01;;;;;;;31.17;16.10;;;;;;;0.00;70.09;99606.63;10282350;28;19922;-55
2022/12/18 21:06:59;;;;;;;42.17;20.98;;;;;;;0.02;70.84;99610.19;10273695;28;20041;-56
2022/12/18 21:17:16;;;;;;;37.25;18.45;;;;;;;-0.08;71.69;99605.22;10281300;28;20140;-55
2022/12/18 21:22:15;;;;;;;34.50;16.85;;;;;;;-0.07;71.02;99606.97;10280057;28;20037;-55
2022/12/18 21:27:14;;;;;;;40.58;21.83;;;;;;;-0.13;71.00;99614.22;10282732;28;20128;-55
2022/12/18 21:32:13;;;;;;;43.78;22.17;;;;;;;-0.14;71.08;99612.41;10266221;28;20040;-55
2022/12/18 21:37:12;;;;;;;42.42;22.77;;;;;;;-0.19;72.01;99621.41;10279949;28;20128;-55
2022/12/18 21:47:29;;;;;;;60.70;32.92;;;;;;;-0.20;71.94;99617.09;10282279;28;20140;-55
2022/12/18 21:52:28;;;;;;;43.92;22.10;;;;;;;-0.37;72.24;99624.44;10280171;28;20133;-55
2022/12/18 21:57:27;;;;;;;38.38;19.92;;;;;;;-0.41;72.38;99624.13;10282509;28;20120;-55
2022/12/18 22:02:26;;;;;;;39.53;20.00;;;;;;;-0.45;72.19;99623.00;10282160;28;20048;-55
2022/12/18 22:07:26;;;;;;;41.40;21.23;;;;;;;-0.43;71.74;99625.66;10280512;28;20048;-56
2022/12/18 22:12:34;;;;;;;41.83;21.80;;;;;;;-0.41;70.93;99634.31;10276498;28;20128;-56
2022/12/18 22:17:33;;;;;;;46.40;23.15;;;;;;;-0.41;71.19;99624.13;10281088;28;20120;-55
2022/12/18 22:22:32;;;;;;;47.30;24.73;;;;;;;-0.47;71.22;99637.28;10272551;28;20068;-55
2022/12/18 22:27:31;;;;;;;47.58;25.02;;;;;;;-0.51;70.97;99619.09;10280952;28;20044;-55
2022/12/18 22:32:34;;;;;;;54.15;27.40;;;;;;;-0.51;70.63;99620.00;10282940;28;20032;-55
2022/12/18 22:37:33;;;;;;;55.75;27.83;;;;;;;-0.61;71.98;99615.88;10265133;28;20144;-55
2022/12/18 22:42:33;;;;;;;55.38;29.15;;;;;;;-0.66;72.23;99598.50;10264609;28;20116;-55
2022/12/18 22:47:31;;;;;;;92.53;53.80;;;;;;;-0.63;72.39;99603.81;10272274;28;20113;-55
2022/12/18 22:52:30;;;;;;;77.13;39.85;;;;;;;-0.66;72.49;99595.94;10273559;28;20045;-55
2022/12/18 22:57:30;;;;;;;64.20;34.72;;;;;;;-0.70;73.08;99592.25;10272153;28;20037;-55
2022/12/18 23:02:29;;;;;;;72.78;36.78;;;;;;;-0.75;74.49;99592.72;10266594;28;20117;-55
2022/12/18 23:07:28;;;;;;;83.03;45.30;;;;;;;-0.85;75.49;99607.34;10263930;28;20034;-55
2022/12/18 23:12:26;;;;;;;39.25;19.52;;;;;;;-1.07;76.17;99603.97;10278353;28;20148;-56
2022/12/18 23:17:25;;;;;;;57.13;27.75;;;;;;;-1.19;75.99;99610.69;10274477;28;20056;-56
2022/12/18 23:22:24;;;;;;;40.75;19.33;;;;;;;-1.28;77.45;99611.78;10276981;28;20463;-55
2022/12/18 23:27:23;;;;;;;33.78;16.67;;;;;;;-1.66;79.33;99626.69;10280526;28;20388;-55
2022/12/18 23:32:22;;;;;;;41.63;18.75;;;;;;;-1.90;83.11;99638.41;10271238;28;20149;-56
2022/12/18 23:37:21;;;;;;;40.38;19.88;;;;;;;-1.97;83.15;99637.03;10279807;28;20477;-55